createdAt,value
2022-10-10T00:00:53.930Z,95.12
2022-10-10T00:01:53.943Z,95.13
2022-10-10T00:02:53.937Z,95.01
2022-10-10T00:03:53.896Z,95.11
2022-10-10T00:04:53.884Z,95.13
2022-10-10T00:05:53.868Z,95.08
2022-10-10T00:06:53.854Z,95.02
2022-10-10T00:07:53.876Z,94.99
2022-10-10T00:08:53.831Z,95.12
2022-10-10T00:09:53.807Z,95.15
2022-10-10T00:10:54.965Z,95.02
2022-10-10T00:11:53.805Z,95.05
2022-10-10T00:12:53.872Z,95.01
2022-10-10T00:13:53.758Z,95.09
2022-10-10T00:14:53.750Z,95.11
2022-10-10T00:15:53.747Z,95.02
2022-10-10T00:16:53.744Z,95.12
2022-10-10T00:17:53.729Z,95.30
2022-10-10T00:18:53.715Z,95.36
2022-10-10T00:19:53.686Z,95.38
2022-10-10T00:20:53.689Z,95.39
2022-10-10T00:21:53.670Z,95.44
2022-10-10T00:22:54.024Z,95.50
2022-10-10T00:23:53.665Z,95.56
2022-10-10T00:24:53.634Z,95.51
2022-10-10T00:25:53.596Z,95.50
2022-10-10T00:26:53.619Z,95.69
2022-10-10T00:27:53.577Z,95.74
2022-10-10T00:28:53.565Z,95.76
2022-10-10T00:29:53.561Z,95.84
2022-10-10T00:30:53.560Z,95.89
2022-10-10T00:31:53.517Z,95.93
2022-10-10T00:32:53.547Z,95.60
2022-10-10T00:33:53.502Z,95.39
2022-10-10T00:34:53.503Z,95.35
2022-10-10T00:35:53.479Z,95.44
2022-10-10T00:36:53.460Z,95.47
2022-10-10T00:37:53.457Z,95.43
2022-10-10T00:38:53.459Z,95.38
2022-10-10T00:39:53.437Z,95.53
2022-10-10T00:40:53.412Z,95.66
2022-10-10T00:41:53.421Z,95.75
2022-10-10T00:42:53.837Z,95.74
2022-10-10T00:43:53.384Z,95.74
2022-10-10T00:44:53.353Z,95.77
2022-10-10T00:45:53.334Z,95.67
2022-10-10T00:46:53.359Z,95.74
2022-10-10T00:47:53.331Z,95.85
2022-10-10T00:48:53.303Z,95.71
2022-10-10T00:49:53.303Z,95.59
2022-10-10T00:50:53.310Z,95.44
2022-10-10T00:51:53.296Z,95.25
2022-10-10T00:52:53.527Z,95.23
2022-10-10T00:53:53.235Z,95.19
2022-10-10T00:54:53.248Z,95.24
2022-10-10T00:55:53.232Z,95.23
2022-10-10T00:56:53.196Z,95.31
2022-10-10T00:57:53.184Z,95.52
2022-10-10T00:58:53.173Z,95.65
2022-10-10T00:59:53.152Z,95.75
2022-10-10T01:00:53.247Z,95.72
2022-10-10T01:01:53.126Z,95.77
2022-10-10T01:02:53.469Z,95.89
2022-10-10T01:03:53.098Z,95.94
2022-10-10T01:04:53.105Z,95.95
2022-10-10T01:05:53.090Z,95.96
2022-10-10T01:06:53.065Z,95.97
2022-10-10T01:07:53.065Z,96.06
2022-10-10T01:08:53.061Z,96.09
2022-10-10T01:09:53.165Z,96.16
2022-10-10T01:10:53.018Z,96.18
2022-10-10T01:11:53.028Z,96.16
2022-10-10T01:12:53.282Z,96.36
2022-10-10T01:13:52.976Z,96.53
2022-10-10T01:14:52.979Z,96.61
2022-10-10T01:15:52.962Z,96.75
2022-10-10T01:16:52.949Z,96.83
2022-10-10T01:17:52.928Z,96.96
2022-10-10T01:18:52.909Z,96.97
2022-10-10T01:19:52.939Z,96.79
2022-10-10T01:20:52.904Z,96.61
2022-10-10T01:21:52.879Z,96.53
2022-10-10T01:22:53.165Z,96.76
2022-10-10T01:23:52.835Z,96.82
2022-10-10T01:24:52.846Z,97.04
2022-10-10T01:25:52.827Z,97.03
2022-10-10T01:26:52.819Z,97.01
2022-10-10T01:27:52.794Z,96.83
2022-10-10T01:28:52.778Z,96.75
2022-10-10T01:29:52.781Z,96.76
2022-10-10T01:30:52.755Z,96.60
2022-10-10T01:31:52.751Z,96.50
2022-10-10T01:32:53.288Z,96.47
2022-10-10T01:33:52.723Z,96.32
2022-10-10T01:34:52.732Z,96.26
2022-10-10T01:35:52.696Z,96.34
2022-10-10T01:36:52.697Z,96.28
2022-10-10T01:37:52.670Z,96.18
2022-10-10T01:38:52.647Z,96.09
2022-10-10T01:39:52.665Z,96.23
2022-10-10T01:40:52.621Z,96.24
2022-10-10T01:41:52.603Z,96.24
2022-10-10T01:42:52.903Z,96.32
2022-10-10T01:43:52.572Z,96.53
2022-10-10T01:44:52.601Z,96.69
2022-10-10T01:45:52.568Z,96.53
2022-10-10T01:46:52.540Z,96.52
2022-10-10T01:47:52.524Z,96.56
2022-10-10T01:48:52.537Z,96.68
2022-10-10T01:49:52.497Z,96.83
2022-10-10T01:50:52.503Z,96.86
2022-10-10T01:51:52.470Z,96.89
2022-10-10T01:52:52.821Z,96.81
2022-10-10T01:53:52.461Z,96.73
2022-10-10T01:54:52.459Z,96.60
2022-10-10T01:55:52.441Z,96.74
2022-10-10T01:56:52.454Z,96.82
2022-10-10T01:57:52.391Z,96.86
2022-10-10T01:58:52.384Z,96.98
2022-10-10T01:59:52.367Z,97.14
2022-10-10T02:00:52.436Z,97.33
2022-10-10T02:01:52.341Z,97.25
2022-10-10T02:02:52.758Z,97.42
2022-10-10T02:03:52.338Z,97.52
2022-10-10T02:04:52.324Z,97.44
2022-10-10T02:05:52.314Z,97.53
2022-10-10T02:06:52.298Z,97.85
2022-10-10T02:07:52.261Z,98.02
2022-10-10T02:08:52.293Z,98.16
2022-10-10T02:09:52.260Z,98.32
2022-10-10T02:10:52.250Z,98.49
2022-10-10T02:11:52.253Z,98.71
2022-10-10T02:12:52.697Z,98.80
2022-10-10T02:13:52.193Z,98.85
2022-10-10T02:14:52.190Z,98.87
2022-10-10T02:15:52.159Z,98.97
2022-10-10T02:16:52.150Z,98.95
2022-10-10T02:17:52.146Z,99.09
2022-10-10T02:18:52.144Z,99.05
2022-10-10T02:19:52.146Z,99.21
2022-10-10T02:20:52.104Z,99.20
2022-10-10T02:21:52.095Z,99.32
2022-10-10T02:22:52.324Z,99.59
2022-10-10T02:23:52.060Z,99.65
2022-10-10T02:24:52.067Z,99.66
2022-10-10T02:25:52.047Z,99.72
2022-10-10T02:26:52.034Z,99.77
2022-10-10T02:27:52.016Z,99.86
2022-10-10T02:28:52.020Z,99.96
2022-10-10T02:29:51.989Z,100.00
2022-10-10T02:30:51.986Z,100.00
2022-10-10T02:31:51.947Z,100.00
2022-10-10T02:32:52.422Z,100.00
2022-10-10T02:33:51.942Z,100.00
2022-10-10T02:34:51.952Z,100.00
2022-10-10T02:35:51.920Z,100.00
2022-10-10T02:36:51.908Z,100.00
2022-10-10T02:37:51.874Z,100.00
2022-10-10T02:38:51.863Z,100.00
2022-10-10T02:39:51.864Z,100.00
2022-10-10T02:40:51.846Z,100.00
2022-10-10T02:41:51.840Z,100.00
2022-10-10T02:42:52.089Z,100.00
2022-10-10T02:43:51.805Z,100.00
2022-10-10T02:44:51.807Z,100.00
2022-10-10T02:45:51.764Z,100.00
2022-10-10T02:46:51.791Z,100.00
2022-10-10T02:47:51.753Z,100.00
2022-10-10T02:48:51.727Z,100.00
2022-10-10T02:49:51.727Z,100.00
2022-10-10T02:50:51.738Z,100.00
2022-10-10T02:51:51.702Z,100.00
2022-10-10T02:52:52.160Z,100.00
2022-10-10T02:53:51.677Z,100.00
2022-10-10T02:54:51.659Z,100.00
2022-10-10T02:55:51.634Z,100.00
2022-10-10T02:56:51.652Z,100.00
2022-10-10T02:57:51.609Z,100.00
2022-10-10T02:58:51.601Z,100.00
2022-10-10T02:59:51.629Z,100.00
2022-10-10T03:00:51.615Z,100.00
2022-10-10T03:01:51.563Z,100.00
2022-10-10T03:02:51.872Z,100.00
2022-10-10T03:03:51.532Z,100.00
2022-10-10T03:04:51.538Z,100.00
2022-10-10T03:05:51.503Z,100.00
2022-10-10T03:06:51.525Z,100.00
2022-10-10T03:07:51.518Z,100.00
2022-10-10T03:08:51.466Z,100.00
2022-10-10T03:09:51.451Z,100.00
2022-10-10T03:10:51.447Z,100.00
2022-10-10T03:11:51.429Z,100.00
2022-10-10T03:12:51.853Z,100.00
2022-10-10T03:13:51.411Z,100.00
2022-10-10T03:14:51.512Z,100.00
2022-10-10T03:15:51.370Z,100.00
2022-10-10T03:16:51.392Z,100.00
2022-10-10T03:17:51.384Z,100.00
2022-10-10T03:18:51.355Z,100.00
2022-10-10T03:19:51.346Z,100.00
2022-10-10T03:20:51.329Z,100.00
2022-10-10T03:21:51.310Z,100.00
2022-10-10T03:22:51.674Z,100.00
2022-10-10T03:23:51.283Z,100.00
2022-10-10T03:24:51.277Z,100.00
2022-10-10T03:25:51.240Z,100.00
2022-10-10T03:26:51.253Z,100.00
2022-10-10T03:27:51.240Z,99.96
2022-10-10T03:28:51.223Z,99.93
2022-10-10T03:29:51.222Z,100.00
2022-10-10T03:30:51.197Z,100.00
2022-10-10T03:31:51.193Z,99.91
2022-10-10T03:32:51.431Z,99.74
2022-10-10T03:33:51.137Z,99.72
2022-10-10T03:34:51.141Z,99.79
2022-10-10T03:35:51.109Z,99.85
2022-10-10T03:36:51.105Z,99.87
2022-10-10T03:37:51.092Z,99.81
2022-10-10T03:38:51.071Z,99.99
2022-10-10T03:39:51.073Z,100.00
2022-10-10T03:40:51.065Z,100.00
2022-10-10T03:41:51.056Z,100.00
2022-10-10T03:42:51.310Z,100.00
2022-10-10T03:43:51.029Z,100.00
2022-10-10T03:44:51.069Z,100.00
2022-10-10T03:45:50.991Z,100.00
2022-10-10T03:46:50.984Z,100.00
2022-10-10T03:47:51.003Z,100.00
2022-10-10T03:48:50.961Z,100.00
2022-10-10T03:49:50.962Z,100.00
2022-10-10T03:50:50.916Z,100.00
2022-10-10T03:51:50.927Z,100.00
2022-10-10T03:52:51.166Z,100.00
2022-10-10T03:53:50.893Z,100.00
2022-10-10T03:54:50.875Z,100.00
2022-10-10T03:55:50.862Z,100.00
2022-10-10T03:56:50.839Z,100.00
2022-10-10T03:57:50.862Z,100.00
2022-10-10T03:58:50.815Z,100.00
2022-10-10T03:59:50.814Z,100.00
2022-10-10T04:00:50.795Z,100.00
2022-10-10T04:01:50.796Z,100.00
2022-10-10T04:02:51.084Z,100.00
2022-10-10T04:03:52.257Z,100.00
2022-10-10T04:04:50.729Z,100.00
2022-10-10T04:05:50.750Z,100.00
2022-10-10T04:06:50.724Z,100.00
2022-10-10T04:07:50.721Z,100.00
2022-10-10T04:08:50.705Z,100.00
2022-10-10T04:09:50.681Z,100.00
2022-10-10T04:10:50.655Z,100.00
2022-10-10T04:11:50.654Z,100.00
2022-10-10T04:12:50.835Z,100.00
2022-10-10T04:13:50.640Z,100.00
2022-10-10T04:14:50.623Z,100.00
2022-10-10T04:15:50.608Z,100.00
2022-10-10T04:16:50.594Z,100.00
2022-10-10T04:17:50.568Z,100.00
2022-10-10T04:18:50.570Z,100.00
2022-10-10T04:19:50.547Z,100.00
2022-10-10T04:20:50.545Z,100.00
2022-10-10T04:21:50.540Z,100.00
2022-10-10T04:22:50.733Z,100.00
2022-10-10T04:23:50.488Z,100.00
2022-10-10T04:24:50.496Z,100.00
2022-10-10T04:25:50.482Z,100.00
2022-10-10T04:26:50.446Z,100.00
2022-10-10T04:27:50.453Z,100.00
2022-10-10T04:28:50.441Z,100.00
2022-10-10T04:29:50.436Z,100.00
2022-10-10T04:30:50.404Z,100.00
2022-10-10T04:31:50.425Z,100.00
2022-10-10T04:32:50.642Z,100.00
2022-10-10T04:33:50.382Z,100.00
2022-10-10T04:34:50.344Z,100.00
2022-10-10T04:35:50.376Z,100.00
2022-10-10T04:36:50.315Z,100.00
2022-10-10T04:37:50.340Z,100.00
2022-10-10T04:38:50.303Z,100.00
2022-10-10T04:39:50.323Z,100.00
2022-10-10T04:40:50.285Z,100.00
2022-10-10T04:41:50.278Z,100.00
2022-10-10T04:42:50.506Z,100.00
2022-10-10T04:43:50.246Z,100.00
2022-10-10T04:44:50.238Z,100.00
2022-10-10T04:45:50.223Z,100.00
2022-10-10T04:46:50.186Z,100.00
2022-10-10T04:47:50.211Z,100.00
2022-10-10T04:48:50.160Z,100.00
2022-10-10T04:49:50.156Z,100.00
2022-10-10T04:50:50.156Z,100.00
2022-10-10T04:51:50.135Z,100.00
2022-10-10T04:52:50.357Z,100.00
2022-10-10T04:53:50.672Z,100.00
2022-10-10T04:54:50.082Z,100.00
2022-10-10T04:55:50.079Z,100.00
2022-10-10T04:56:50.069Z,100.00
2022-10-10T04:57:50.066Z,100.00
2022-10-10T04:58:50.047Z,100.00
2022-10-10T04:59:50.045Z,100.00
2022-10-10T05:00:50.018Z,100.00
2022-10-10T05:01:50.024Z,100.00
2022-10-10T05:02:50.317Z,100.00
2022-10-10T05:03:49.988Z,100.00
2022-10-10T05:04:49.970Z,100.00
2022-10-10T05:05:49.981Z,100.00
2022-10-10T05:06:49.934Z,100.00
2022-10-10T05:07:55.156Z,100.00
2022-10-10T05:08:49.941Z,100.00
2022-10-10T05:09:49.890Z,100.00
2022-10-10T05:10:49.901Z,100.00
2022-10-10T05:11:49.867Z,100.00
2022-10-10T05:12:50.147Z,100.00
2022-10-10T05:13:49.841Z,100.00
2022-10-10T05:14:49.831Z,100.00
2022-10-10T05:15:49.835Z,100.00
2022-10-10T05:16:49.814Z,100.00
2022-10-10T05:17:49.808Z,100.00
2022-10-10T05:18:49.788Z,100.00
2022-10-10T05:19:49.766Z,100.00
2022-10-10T05:20:49.760Z,100.00
2022-10-10T05:21:49.753Z,100.00
2022-10-10T05:22:50.082Z,100.00
2022-10-10T05:23:49.711Z,100.00
2022-10-10T05:24:49.708Z,100.00
2022-10-10T05:25:49.716Z,100.00
2022-10-10T05:26:49.665Z,100.00
2022-10-10T05:27:49.674Z,100.00
2022-10-10T05:28:49.668Z,100.00
2022-10-10T05:29:49.632Z,100.00
2022-10-10T05:30:49.612Z,100.00
2022-10-10T05:31:49.625Z,100.00
2022-10-10T05:32:49.954Z,100.00
2022-10-10T05:33:49.609Z,100.00
2022-10-10T05:34:49.560Z,100.00
2022-10-10T05:35:49.576Z,100.00
2022-10-10T05:36:49.550Z,100.00
2022-10-10T05:37:49.533Z,100.00
2022-10-10T05:38:49.529Z,100.00
2022-10-10T05:39:54.376Z,100.00
2022-10-10T05:40:49.501Z,100.00
2022-10-10T05:41:49.494Z,100.00
2022-10-10T05:42:49.780Z,100.00
2022-10-10T05:43:49.458Z,100.00
2022-10-10T05:44:49.456Z,100.00
2022-10-10T05:45:49.419Z,100.00
2022-10-10T05:46:49.419Z,100.00
2022-10-10T05:47:49.424Z,100.00
2022-10-10T05:48:49.380Z,100.00
2022-10-10T05:49:49.378Z,100.00
2022-10-10T05:50:49.372Z,100.00
2022-10-10T05:51:49.400Z,100.00
2022-10-10T05:52:49.731Z,100.00
2022-10-10T05:53:49.354Z,100.00
2022-10-10T05:54:49.312Z,100.00
2022-10-10T05:55:49.311Z,100.00
2022-10-10T05:56:49.294Z,100.00
2022-10-10T05:57:49.284Z,100.00
2022-10-10T05:58:49.246Z,100.00
2022-10-10T05:59:49.248Z,100.00
2022-10-10T06:00:49.240Z,100.00
2022-10-10T06:01:49.211Z,100.00
2022-10-10T06:02:49.642Z,100.00
2022-10-10T06:03:49.206Z,99.87
2022-10-10T06:04:49.195Z,99.68
2022-10-10T06:05:49.178Z,99.42
2022-10-10T06:06:49.179Z,99.19
2022-10-10T06:08:09.186Z,99.08
2022-10-10T06:08:49.126Z,98.79
2022-10-10T06:09:49.118Z,98.50
2022-10-10T06:10:49.102Z,98.41
2022-10-10T06:11:49.090Z,98.39
2022-10-10T06:12:49.434Z,98.21
2022-10-10T06:13:49.076Z,98.09
2022-10-10T06:14:49.054Z,98.04
2022-10-10T06:15:49.048Z,98.11
2022-10-10T06:16:49.013Z,97.95
2022-10-10T06:17:49.029Z,97.78
2022-10-10T06:18:49.003Z,97.77
2022-10-10T06:19:48.998Z,97.55
2022-10-10T06:20:48.988Z,97.65
2022-10-10T06:21:48.975Z,97.65
2022-10-10T06:22:49.251Z,97.62
2022-10-10T06:23:48.926Z,97.71
2022-10-10T06:24:52.906Z,97.82
2022-10-10T06:25:48.898Z,97.86
2022-10-10T06:26:48.882Z,97.97
2022-10-10T06:27:48.901Z,98.10
2022-10-10T06:28:48.914Z,98.17
2022-10-10T06:29:48.866Z,98.26
2022-10-10T06:30:48.834Z,98.29
2022-10-10T06:31:49.085Z,98.32
2022-10-10T06:32:50.845Z,98.40
2022-10-10T06:33:48.810Z,98.31
2022-10-10T06:34:48.785Z,98.28
2022-10-10T06:35:48.766Z,98.28
2022-10-10T06:36:48.767Z,98.32
2022-10-10T06:37:48.742Z,98.48
2022-10-10T06:38:48.740Z,98.51
2022-10-10T06:39:48.748Z,98.50
2022-10-10T06:40:48.715Z,98.46
2022-10-10T06:41:48.713Z,98.25
2022-10-10T06:42:48.986Z,98.11
2022-10-10T06:43:48.680Z,97.97
2022-10-10T06:44:48.671Z,97.52
2022-10-10T06:45:48.635Z,97.11
2022-10-10T06:46:48.652Z,96.74
2022-10-10T06:47:48.637Z,96.39
2022-10-10T06:48:48.620Z,95.89
2022-10-10T06:49:48.608Z,95.56
2022-10-10T06:50:48.569Z,95.28
2022-10-10T06:51:48.584Z,95.29
2022-10-10T06:52:48.899Z,95.06
2022-10-10T06:53:48.552Z,94.42
2022-10-10T06:54:48.517Z,94.10
2022-10-10T06:55:48.534Z,93.98
2022-10-10T06:56:48.514Z,93.99
2022-10-10T06:57:48.480Z,93.70
2022-10-10T06:58:48.471Z,93.32
2022-10-10T06:59:48.474Z,93.19
2022-10-10T07:00:48.435Z,93.01
2022-10-10T07:01:48.500Z,93.29
2022-10-10T07:02:48.731Z,93.57
2022-10-10T07:03:48.430Z,93.48
2022-10-10T07:04:48.400Z,93.04
2022-10-10T07:05:48.374Z,92.73
2022-10-10T07:06:48.364Z,91.41
2022-10-10T07:07:48.359Z,90.95
2022-10-10T07:08:48.329Z,90.57
2022-10-10T07:09:48.328Z,90.19
2022-10-10T07:10:48.313Z,90.74
2022-10-10T07:11:48.320Z,90.07
2022-10-10T07:12:48.302Z,89.18
2022-10-10T07:13:48.270Z,89.18
2022-10-10T07:14:48.303Z,88.82
2022-10-10T07:15:48.249Z,88.76
2022-10-10T07:16:48.227Z,88.75
2022-10-10T07:17:53.415Z,89.23
2022-10-10T07:18:48.207Z,89.50
2022-10-10T07:19:48.215Z,89.22
2022-10-10T07:20:48.205Z,88.74
2022-10-10T07:21:48.164Z,88.85
2022-10-10T07:22:48.360Z,89.59
2022-10-10T07:23:48.140Z,89.91
2022-10-10T07:24:48.144Z,89.64
2022-10-10T07:25:48.130Z,89.07
2022-10-10T07:26:48.137Z,89.18
2022-10-10T07:27:48.119Z,89.44
2022-10-10T07:28:48.112Z,89.79
2022-10-10T07:29:48.059Z,89.57
2022-10-10T07:30:48.072Z,90.19
2022-10-10T07:31:48.051Z,90.09
2022-10-10T07:32:48.300Z,89.56
2022-10-10T07:33:50.429Z,89.72
2022-10-10T07:34:47.987Z,89.77
2022-10-10T07:35:47.974Z,89.83
2022-10-10T07:36:47.965Z,89.58
2022-10-10T07:37:47.968Z,89.45
2022-10-10T07:38:47.956Z,89.32
2022-10-10T07:39:47.926Z,89.04
2022-10-10T07:40:47.919Z,89.27
2022-10-10T07:41:47.934Z,89.39
2022-10-10T07:42:48.005Z,89.47
2022-10-10T07:43:47.931Z,88.96
2022-10-10T07:44:47.918Z,88.79
2022-10-10T07:45:47.868Z,88.95
2022-10-10T07:46:47.864Z,88.67
2022-10-10T07:47:47.992Z,88.52
2022-10-10T07:48:47.826Z,89.08
2022-10-10T07:49:47.806Z,88.64
2022-10-10T07:50:47.795Z,88.13
2022-10-10T07:51:47.798Z,87.37
2022-10-10T07:52:47.748Z,86.79
2022-10-10T07:53:47.754Z,86.77
2022-10-10T07:54:47.773Z,86.10
2022-10-10T07:55:47.708Z,86.12
2022-10-10T07:56:47.720Z,86.37
2022-10-10T07:57:52.498Z,86.01
2022-10-10T07:58:47.688Z,86.10
2022-10-10T07:59:47.690Z,86.32
2022-10-10T08:00:47.664Z,86.34
2022-10-10T08:01:47.678Z,85.61
2022-10-10T08:02:47.624Z,85.43
2022-10-10T08:03:47.682Z,85.67
2022-10-10T08:04:47.663Z,85.72
2022-10-10T08:05:47.652Z,85.00
2022-10-10T08:06:47.649Z,85.08
2022-10-10T08:07:47.563Z,85.29
2022-10-10T08:08:51.386Z,85.59
2022-10-10T08:09:47.565Z,85.61
2022-10-10T08:10:47.536Z,85.43
2022-10-10T08:11:47.573Z,85.34
2022-10-10T08:12:47.531Z,86.01
2022-10-10T08:13:47.493Z,85.13
2022-10-10T08:14:47.513Z,84.75
2022-10-10T08:15:47.448Z,85.19
2022-10-10T08:16:47.476Z,85.13
2022-10-10T08:17:47.466Z,85.29
2022-10-10T08:18:47.426Z,85.43
2022-10-10T08:19:47.420Z,85.31
2022-10-10T08:20:47.409Z,85.61
2022-10-10T08:21:47.423Z,85.83
2022-10-10T08:22:47.364Z,86.10
2022-10-10T08:23:47.374Z,85.26
2022-10-10T08:24:47.350Z,85.19
2022-10-10T08:25:47.335Z,84.60
2022-10-10T08:26:47.321Z,84.72
2022-10-10T08:27:47.320Z,85.40
2022-10-10T08:28:47.387Z,85.25
2022-10-10T08:29:47.286Z,84.95
2022-10-10T08:30:47.274Z,84.93
2022-10-10T08:31:47.250Z,84.59
2022-10-10T08:32:47.237Z,84.16
2022-10-10T08:33:47.216Z,84.69
2022-10-10T08:34:47.281Z,85.92
2022-10-10T08:35:47.180Z,82.39
2022-10-10T08:36:47.171Z,81.15
2022-10-10T08:37:47.172Z,79.63
2022-10-10T08:38:47.165Z,79.50
2022-10-10T08:39:47.209Z,77.09
2022-10-10T08:40:47.155Z,77.52
2022-10-10T08:41:47.159Z,77.04
2022-10-10T08:42:52.527Z,76.12
2022-10-10T08:43:47.116Z,76.61
2022-10-10T08:44:47.108Z,76.45
2022-10-10T08:45:47.065Z,76.74
2022-10-10T08:46:47.060Z,76.45
2022-10-10T08:47:47.058Z,75.68
2022-10-10T08:48:47.036Z,75.52
2022-10-10T08:49:48.009Z,76.21
2022-10-10T08:50:47.039Z,75.36
2022-10-10T08:51:47.010Z,74.14
2022-10-10T08:52:47.020Z,73.76
2022-10-10T08:53:47.043Z,74.72
2022-10-10T08:54:47.063Z,75.05
2022-10-10T08:55:46.964Z,76.31
2022-10-10T08:56:46.950Z,76.25
2022-10-10T08:57:46.944Z,75.54
2022-10-10T08:58:46.987Z,75.62
2022-10-10T08:59:46.931Z,74.25
2022-10-10T09:00:46.948Z,73.14
2022-10-10T09:02:18.666Z,72.22
2022-10-10T09:02:54.629Z,72.19
2022-10-10T09:03:46.953Z,73.29
2022-10-10T09:04:46.848Z,73.29
2022-10-10T09:05:46.818Z,75.50
2022-10-10T09:06:46.799Z,76.75
2022-10-10T09:07:46.773Z,77.20
2022-10-10T09:08:46.751Z,77.77
2022-10-10T09:09:46.755Z,77.36
2022-10-10T09:10:46.724Z,77.38
2022-10-10T09:11:46.730Z,75.63
2022-10-10T09:12:46.723Z,75.18
2022-10-10T09:13:46.679Z,75.78
2022-10-10T09:14:46.688Z,75.12
2022-10-10T09:15:46.648Z,73.39
2022-10-10T09:16:46.700Z,73.14
2022-10-10T09:17:46.734Z,73.19
2022-10-10T09:18:46.652Z,72.34
2022-10-10T09:19:46.601Z,72.65
2022-10-10T09:20:46.588Z,72.17
2022-10-10T09:21:46.591Z,72.57
2022-10-10T09:22:46.641Z,73.67
2022-10-10T09:23:46.574Z,72.34
2022-10-10T09:24:46.535Z,71.43
2022-10-10T09:25:46.520Z,70.49
2022-10-10T09:26:46.511Z,70.23
2022-10-10T09:27:46.509Z,69.70
2022-10-10T09:28:46.562Z,70.10
2022-10-10T09:29:46.470Z,71.23
2022-10-10T09:30:46.459Z,70.09
2022-10-10T09:31:46.481Z,69.12
2022-10-10T09:32:46.442Z,68.65
2022-10-10T09:33:46.435Z,68.46
2022-10-10T09:34:46.417Z,67.62
2022-10-10T09:35:46.406Z,67.39
2022-10-10T09:36:46.402Z,66.11
2022-10-10T09:37:47.919Z,66.02
2022-10-10T09:38:46.374Z,65.95
2022-10-10T09:39:46.346Z,67.04
2022-10-10T09:40:46.349Z,65.61
2022-10-10T09:41:46.324Z,66.98
2022-10-10T09:42:46.323Z,67.71
2022-10-10T09:43:46.312Z,68.08
2022-10-10T09:44:46.323Z,66.81
2022-10-10T09:45:46.277Z,66.61
2022-10-10T09:46:46.262Z,68.60
2022-10-10T09:47:46.243Z,68.42
2022-10-10T09:48:46.222Z,67.19
2022-10-10T09:49:46.289Z,67.37
2022-10-10T09:50:46.213Z,68.00
2022-10-10T09:51:46.246Z,68.58
2022-10-10T09:52:46.208Z,69.69
2022-10-10T09:53:46.181Z,70.97
2022-10-10T09:54:46.145Z,71.19
2022-10-10T09:55:46.178Z,72.51
2022-10-10T09:56:46.137Z,71.62
2022-10-10T09:57:46.133Z,72.85
2022-10-10T09:58:46.138Z,73.05
2022-10-10T09:59:46.175Z,73.26
2022-10-10T10:00:46.139Z,73.33
2022-10-10T10:01:46.094Z,73.12
2022-10-10T10:02:46.042Z,72.96
2022-10-10T10:03:46.035Z,72.76
2022-10-10T10:04:46.032Z,72.30
2022-10-10T10:05:45.989Z,73.57
2022-10-10T10:06:45.982Z,74.04
2022-10-10T10:07:45.991Z,73.75
2022-10-10T10:08:49.856Z,72.28
2022-10-10T10:09:45.954Z,72.24
2022-10-10T10:10:45.937Z,71.68
2022-10-10T10:11:45.941Z,71.92
2022-10-10T10:12:45.915Z,70.86
2022-10-10T10:13:45.906Z,70.94
2022-10-10T10:14:45.889Z,70.60
2022-10-10T10:15:45.860Z,70.18
2022-10-10T10:16:45.851Z,70.65
2022-10-10T10:17:45.831Z,70.08
2022-10-10T10:18:45.850Z,68.93
2022-10-10T10:19:45.927Z,68.97
2022-10-10T10:20:45.798Z,68.44
2022-10-10T10:21:45.783Z,68.44
2022-10-10T10:22:45.855Z,69.46
2022-10-10T10:23:45.754Z,68.80
2022-10-10T10:24:45.749Z,67.92
2022-10-10T10:25:45.725Z,67.30
2022-10-10T10:26:45.750Z,67.97
2022-10-10T10:27:45.699Z,68.91
2022-10-10T10:28:45.789Z,68.60
2022-10-10T10:29:45.673Z,68.41
2022-10-10T10:30:45.672Z,68.48
2022-10-10T10:31:45.646Z,69.07
2022-10-10T10:32:45.662Z,69.13
2022-10-10T10:33:45.626Z,71.33
2022-10-10T10:34:45.628Z,70.75
2022-10-10T10:35:45.609Z,70.40
2022-10-10T10:36:45.606Z,70.66
2022-10-10T10:37:45.572Z,71.36
2022-10-10T10:38:45.559Z,70.67
2022-10-10T10:39:45.556Z,71.32
2022-10-10T10:40:45.537Z,69.71
2022-10-10T10:41:45.764Z,67.48
2022-10-10T10:42:45.547Z,65.40
2022-10-10T10:43:45.497Z,64.14
2022-10-10T10:44:45.482Z,62.90
2022-10-10T10:45:45.462Z,60.57
2022-10-10T10:46:45.474Z,62.41
2022-10-10T10:47:45.460Z,64.09
2022-10-10T10:48:45.448Z,64.09
2022-10-10T10:49:45.430Z,65.41
2022-10-10T10:50:45.425Z,65.56
2022-10-10T10:51:45.402Z,67.11
2022-10-10T10:52:45.394Z,67.17
2022-10-10T10:53:45.368Z,67.44
2022-10-10T10:54:45.653Z,67.91
2022-10-10T10:55:45.334Z,67.62
2022-10-10T10:56:45.352Z,67.57
2022-10-10T10:58:22.397Z,68.70
2022-10-10T11:00:32.995Z,68.55
2022-10-10T11:01:28.003Z,67.15
2022-10-10T11:01:56.041Z,65.33
2022-10-10T11:02:59.548Z,63.80
2022-10-10T11:05:19.393Z,63.21
2022-10-10T11:05:40.569Z,60.93
2022-10-10T11:05:46.223Z,59.86
2022-10-10T11:06:59.955Z,59.95
2022-10-10T11:07:45.259Z,61.76
2022-10-10T11:08:45.227Z,61.55
2022-10-10T11:09:50.109Z,61.09
2022-10-10T11:10:45.172Z,60.91
2022-10-10T11:11:45.120Z,60.19
2022-10-10T11:12:45.123Z,58.87
2022-10-10T11:13:45.112Z,59.29
2022-10-10T11:14:45.122Z,59.01
2022-10-10T11:16:05.481Z,59.54
2022-10-10T11:16:48.455Z,59.16
2022-10-10T11:17:45.043Z,60.17
2022-10-10T11:18:45.072Z,59.00
2022-10-10T11:19:45.037Z,60.49
2022-10-10T11:20:45.049Z,61.43
2022-10-10T11:21:44.998Z,62.28
2022-10-10T11:32:22.058Z,61.40
2022-10-10T11:32:27.707Z,61.33
2022-10-10T11:33:27.685Z,60.12
2022-10-10T11:34:27.702Z,59.21
2022-10-10T11:35:27.669Z,57.12
2022-10-10T11:36:27.653Z,56.56
2022-10-10T11:37:27.621Z,58.49
2022-10-10T11:38:27.645Z,60.41
2022-10-10T11:39:27.584Z,62.86
2022-10-10T11:40:27.578Z,63.65
2022-10-10T11:41:27.563Z,62.75
2022-10-10T11:42:27.564Z,63.12
2022-10-10T11:43:27.562Z,62.43
2022-10-10T11:44:27.517Z,61.09
2022-10-10T11:45:27.523Z,60.29
2022-10-10T11:46:27.522Z,59.81
2022-10-10T11:47:27.475Z,60.72
2022-10-10T11:48:27.505Z,59.78
2022-10-10T11:49:27.449Z,60.60
2022-10-10T11:50:27.485Z,60.35
2022-10-10T11:51:27.441Z,60.09
2022-10-10T11:52:35.127Z,60.00
2022-10-10T11:53:27.407Z,58.48
2022-10-10T11:54:27.397Z,58.99
2022-10-10T11:55:27.379Z,59.25
2022-10-10T11:56:27.401Z,60.44
2022-10-10T11:57:27.370Z,61.04
2022-10-10T11:58:27.338Z,60.14
2022-10-10T11:59:27.345Z,60.57
2022-10-10T12:00:27.330Z,61.85
2022-10-10T12:01:27.295Z,60.90
2022-10-10T12:02:28.131Z,60.93
2022-10-10T12:03:27.301Z,59.31
2022-10-10T12:04:27.271Z,58.77
2022-10-10T12:05:27.246Z,58.94
2022-10-10T12:06:27.260Z,57.86
2022-10-10T12:07:27.241Z,58.14
2022-10-10T12:08:27.215Z,58.05
2022-10-10T12:09:27.217Z,58.14
2022-10-10T12:10:27.218Z,58.53
2022-10-10T12:11:27.201Z,59.20
2022-10-10T12:12:27.284Z,59.75
2022-10-10T12:13:27.183Z,58.81
2022-10-10T12:14:27.141Z,59.94
2022-10-10T12:15:27.136Z,60.00
2022-10-10T12:16:30.570Z,58.81
2022-10-10T12:17:27.118Z,58.88
2022-10-10T12:18:27.094Z,59.58
2022-10-10T12:19:27.067Z,59.46
2022-10-10T12:20:27.059Z,59.66
2022-10-10T12:21:27.069Z,59.59
2022-10-10T12:22:27.040Z,60.52
2022-10-10T12:23:27.052Z,59.33
2022-10-10T12:24:27.037Z,57.63
2022-10-10T12:25:27.020Z,57.58
2022-10-10T12:26:26.994Z,57.67
2022-10-10T12:27:26.999Z,59.51
2022-10-10T12:28:27.053Z,61.12
2022-10-10T12:29:26.957Z,60.25
2022-10-10T12:30:26.953Z,59.18
2022-10-10T12:31:26.977Z,60.39
2022-10-10T12:32:26.915Z,60.97
2022-10-10T12:33:26.921Z,60.93
2022-10-10T12:34:26.886Z,60.56
2022-10-10T12:35:26.887Z,61.19
2022-10-10T12:36:26.880Z,60.70
2022-10-10T12:37:26.850Z,60.93
2022-10-10T12:38:26.943Z,61.37
2022-10-10T12:39:26.870Z,61.11
2022-10-10T12:40:26.827Z,59.48
2022-10-10T12:41:26.790Z,58.75
2022-10-10T12:42:26.796Z,58.72
2022-10-10T12:43:26.785Z,58.37
2022-10-10T12:44:26.813Z,58.09
2022-10-10T12:45:26.775Z,56.89
2022-10-10T12:46:26.738Z,54.98
2022-10-10T12:47:46.281Z,55.01
2022-10-10T12:48:26.726Z,55.81
2022-10-10T12:49:26.678Z,56.62
2022-10-10T12:50:26.702Z,57.94
2022-10-10T12:51:26.659Z,58.76
2022-10-10T12:52:26.647Z,58.18
2022-10-10T12:53:26.674Z,59.92
2022-10-10T12:54:26.866Z,60.42
2022-10-10T12:55:26.612Z,59.46
2022-10-10T12:56:26.602Z,58.72